Monday, February 18, 2019, 4:22 AM CST
Back to Local

KDPA, Chicago/west Ch Dupage

Location: West Chicago, IL, United States Lat: 41.9
Local Time: 4:22 AM CST (10:22 GMT) Lon: -88.25
Time Zone: US/Central Elev: 757 ft

Show me the last for .
Show Coded

Time T Td Feel RH Dir Speed Gust Alt SLP Vis Weather Sky Remarks
2019-02-18 03:52 22 17 11 81 350° 10 - 30.05 30.08 5 UP BKN075 OVC090 1-hr Precip Total: Trace
2019-02-18 03:26 23 18 12 80 350° 12 - 30.04 - 3 UP SCT042 OVC080 1-hr Precip Total: Trace
2019-02-18 03:00 23 19 12 84 340° 12 - 30.03 - 1 -SN BR OVC031 1-hr Precip Total: Trace
2019-02-18 02:52 23 19 12 84 340° 10 - 30.03 30.06 1 -SN BR OVC029 1-hr Precip Total: Trace
6-hr Precip Total (3am): 0.00"
2019-02-18 01:52 23 19 12 84 330° 12 - 30.01 30.04 1 -SN BR VV020 1-hr Precip Total: Trace
2019-02-18 01:34 24 19 13 80 330° 12 - 30.00 - 1 -SN VV016 1-hr Precip Total: Trace
2019-02-18 00:59 24 20 14 83 330° 9 - 29.98 - 0 -SN BKN019 BKN024 OVC038 1-hr Precip Total: Trace
2019-02-18 00:52 25 20 16 80 330° 8 - 29.98 30.01 2 -SN SCT017 BKN023 OVC038 1-hr Precip Total: Trace
2019-02-18 00:45 25 20 14 80 330° 12 - 29.98 - 2 -SN FEW017 SCT023 OVC036 1-hr Precip Total: Trace
2019-02-18 00:34 25 20 15 80 340° 10 - 29.97 - 2 -SN BKN023 OVC034 1-hr Precip Total: Trace
2019-02-17 23:52 26 22 17 84 330° 9 - 29.95 29.98 2 -SN BR SCT015 OVC032 1-hr Precip Total: Trace
6-hr Precip Total (12am): 0.02"
6-hr Min Temp (12am): 26.1°F
6-hr Max Temp (12am): 27.0°F
24-hr Min Temp (12am): 25.0°F
24-hr Max Temp (12am): 28.9°F
2019-02-17 22:52 26 22 16 84 340° 12 - 29.93 29.96 3 BR FEW008 FEW015 OVC046 1-hr Precip Total: Trace
2019-02-17 22:28 26 22 17 84 350° 9 - 29.92 - 5 -SN BR FEW008 OVC055 1-hr Precip Total: Trace
2019-02-17 21:59 26 22 16 84 350° 10 - 29.91 - 0 -SN OVC038 1-hr Precip Total: Trace
2019-02-17 21:52 26 22 16 84 360° 10 - 29.91 29.94 1 -SN BR OVC030 1-hr Precip Total: Trace
2019-02-17 21:49 27 21 17 79 360° 10 - 29.91 - 1 -SN BR OVC030 1-hr Precip Total: Trace
2019-02-17 21:26 26 22 16 84 350° 10 - 29.91 - 1 -SN BR BKN016 OVC028 1-hr Precip Total: Trace
2019-02-17 21:08 26 23 17 87 360° 9 - 29.90 - 1 -SN BR BKN014 OVC039 1-hr Precip Total: Trace
2019-02-17 20:55 26 23 18 87 350° 8 - 29.89 - 0 -SN FEW009 SCT015 OVC039 1-hr Precip Total: Trace
2019-02-17 20:52 26 23 17 87 360° 9 - 29.89 29.92 1 -SN BR SCT015 OVC037 1-hr Precip Total: Trace
6-hr Precip Total (9pm): 0.02"
2019-02-17 20:15 26 23 18 87 10° 8 - 29.88 - 1 -SN BR FEW010 OVC033 1-hr Precip Total: Trace
2019-02-17 20:08 26 23 17 87 10° 9 - 29.88 - 0 -SN FEW010 OVC033 1-hr Precip Total: Trace
2019-02-17 19:52 27 23 19 84 10° 7 - 29.88 29.90 0 -SN FEW010 OVC027 1-hr Precip Total: 0.01"
2019-02-17 19:16 27 23 17 84 30° 10 - 29.88 - 0 SN OVC015 1-hr Precip Total: 0.01"
2019-02-17 18:52 27 23 19 84 30° 8 - 29.87 29.90 0 SN OVC013 1-hr Precip Total: 0.01"
2019-02-17 18:23 28 23 19 81 30° 9 - 29.86 - 0 SN FEW008 BKN024 OVC031 1-hr Precip Total: Trace
2019-02-17 18:06 28 24 19 84 40° 9 - 29.85 - 0 -SN BKN011 BKN015 OVC023 1-hr Precip Total: Trace
2019-02-17 17:52 28 24 18 84 40° 12 - 29.84 29.87 0 -SN SCT011 BKN018 OVC035 1-hr Precip Total: 0.01"
6-hr Precip Total (6pm): 0.03"
6-hr Min Temp (6pm): 27.0°F
6-hr Max Temp (6pm): 28.9°F
2019-02-17 17:45 28 24 20 84 40° 8 - 29.84 - 0 -SN BKN011 BKN018 OVC035 1-hr Precip Total: Trace
2019-02-17 16:52 28 24 19 84 50° 9 - 29.82 29.85 0 -SN FEW009 OVC031 1-hr Precip Total: Trace
2019-02-17 16:43 28 24 19 84 50° 9 - 29.82 - 0 -SN FEW009 FEW024 OVC031 1-hr Precip Total: Trace
2019-02-17 16:14 28 24 19 84 50° 9 - 29.81 - 0 -SN SCT009 BKN016 OVC022 1-hr Precip Total: Trace
2019-02-17 16:10 28 24 20 84 40° 8 - 29.81 - 0 -SN SCT010 BKN013 OVC020 1-hr Precip Total: Trace
2019-02-17 16:03 28 24 19 84 50° 9 - 29.80 - 2 -SN BR BKN010 OVC016 1-hr Precip Total: Trace
2019-02-17 15:52 28 24 18 84 50° 12 - 29.79 29.82 2 -FZRA BR BKN008 BKN014 OVC020 1-hr Precip Total: 0.01"
2019-02-17 15:47 28 25 20 86 50° 9 - 29.79 - 2 BR SCT008 BKN011 OVC020 1-hr Precip Total: Trace
2019-02-17 15:40 28 24 19 84 60° 10 - 29.79 - 2 -FZRA BR BKN009 OVC015 1-hr Precip Total: Trace
2019-02-17 15:33 28 25 19 88 60° 10 - 29.79 - 2 -FZRA BR SCT009 OVC017 1-hr Precip Total: Trace
2019-02-17 15:24 28 24 19 84 70° 10 - 29.79 - 1 -FZRA BR SCT008 BKN017 OVC021 1-hr Precip Total: Trace
2019-02-17 15:09 28 24 20 84 60° 8 - 29.80 - 1 UP BR SCT008 BKN014 OVC021 1-hr Precip Total: Trace
2019-02-17 14:57 28 25 18 88 60° 12 - 29.80 - 0 -SN SCT008 OVC014 1-hr Precip Total: Trace
2019-02-17 14:52 29 25 20 84 60° 9 - 29.80 29.82 2 -FZRA BR SCT006 OVC014 1-hr Precip Total: 0.01"
6-hr Precip Total (3pm): 0.01"
2019-02-17 14:40 28 24 18 84 70° 12 - 29.79 - 2 -FZRA BR SCT007 OVC014 1-hr Precip Total: 0.01"
2019-02-17 13:52 28 24 21 84 70° 7 - 29.80 29.83 2 -FZRA BR BKN009 OVC013 1-hr Precip Total: Trace
2019-02-17 12:57 28 23 19 81 60° 9 - 29.80 - 2 -FZRA OVC012 1-hr Precip Total: Trace
2019-02-17 12:52 28 23 19 81 70° 9 - 29.80 29.83 3 UP OVC012 1-hr Precip Total: Trace
2019-02-17 11:52 27 22 17 80 80° 10 - 29.83 29.86 3 -SN OVC011 1-hr Precip Total: Trace
6-hr Precip Total (12pm): 0.04"
6-hr Min Temp (12pm): 25.0°F
6-hr Max Temp (12pm): 27.0°F
2019-02-17 11:26 27 22 16 80 80° 13 - 29.84 - 3 -SN BKN012 OVC026 1-hr Precip Total: Trace
2019-02-17 11:08 27 22 17 80 80° 10 - 29.84 - 3 -SN SCT010 BKN015 OVC027 1-hr Precip Total: Trace
2019-02-17 10:59 27 23 18 84 70° 9 - 29.84 - 3 -SN BR BKN010 BKN019 OVC055 1-hr Precip Total: Trace
2019-02-17 10:55 27 22 18 80 80° 9 - 29.84 - 2 -SN SCT012 BKN019 OVC055 1-hr Precip Total: Trace
2019-02-17 10:52 27 22 17 80 80° 10 - 29.84 29.87 1 -SN BKN012 BKN017 OVC029 1-hr Precip Total: 0.01"
2019-02-17 10:43 27 23 17 84 80° 10 - 29.84 - 1 -SN BR FEW010 BKN017 OVC031 1-hr Precip Total: 0.01"
2019-02-17 10:20 27 22 17 80 80° 10 - 29.85 - 1 -SN BKN013 OVC035 1-hr Precip Total: Trace
2019-02-17 10:03 26 22 15 84 90° 13 - 29.85 - 0 -SN BR FEW009 BKN020 OVC060 1-hr Precip Total: Trace
2019-02-17 09:56 26 22 16 84 80° 12 - 29.84 - 0 -SN BR FEW009 BKN013 OVC036 1-hr Precip Total: Trace
2019-02-17 09:52 26 22 15 84 80° 13 - 29.84 29.87 1 -SN BR VV012 1-hr Precip Total: Trace
2019-02-17 09:18 26 21 15 80 80° 13 - 29.84 - 1 -SN BKN019 OVC075 1-hr Precip Total: Trace
2019-02-17 09:12 25 21 14 84 80° 13 - 29.85 - 0 -SN FZFG BKN013 OVC075 1-hr Precip Total: Trace
2019-02-17 08:52 25 22 16 87 90° 9 - 29.86 29.89 0 SN FZFG FEW010 OVC018 1-hr Precip Total: 0.02"
6-hr Precip Total (9am): 0.03"
2019-02-17 08:36 25 21 15 84 80° 10 - 29.87 - 0 SN FZFG VV015 1-hr Precip Total: 0.01"
2019-02-17 08:26 25 21 15 84 80° 10 - 29.86 - 0 SN FZFG VV008 1-hr Precip Total: 0.01"
2019-02-17 08:08 25 21 15 84 80° 10 - 29.87 - 0 SN FZFG VV014 1-hr Precip Total: 0.01"
2019-02-17 07:52 25 20 15 80 90° 10 - 29.87 29.89 1 -SN OVC028 1-hr Precip Total: Trace
2019-02-17 07:08 25 21 16 84 100° 8 - 29.88 - 1 -SN BR BKN033 OVC075 1-hr Precip Total: Trace
2019-02-17 06:59 25 21 16 84 90° 8 - 29.87 - 1 -SN BR OVC027 1-hr Precip Total: Trace
2019-02-17 06:52 25 21 16 84 90° 8 - 29.87 29.90 0 SN FZFG VV016 1-hr Precip Total: 0.01"
2019-02-17 06:37 25 21 16 84 90° 8 - 29.87 - 0 +SN FZFG VV010 1-hr Precip Total: 0.01"
2019-02-17 06:03 25 20 14 80 90° 12 - 29.87 - 0 SN VV013 1-hr Precip Total: Trace
2019-02-17 05:52 25 20 16 80 90° 9 - 29.88 29.91 0 SN VV015 1-hr Precip Total: Trace
6-hr Precip Total (6am): 0.00"
6-hr Min Temp (6am): 25.0°F
6-hr Max Temp (6am): 26.1°F
2019-02-17 05:44 25 20 15 80 90° 10 - 29.89 - 0 SN VV018 1-hr Precip Total: Trace
2019-02-17 05:37 25 20 16 80 80° 8 - 29.90 - 2 -SN FEW017 OVC023 1-hr Precip Total: Trace
2019-02-17 05:07 25 19 14 77 100° 13 - 29.90 - 2 -SN SCT016 OVC041 1-hr Precip Total: Trace
2019-02-17 04:52 26 19 17 74 100° 9 - 29.92 29.95 7 OVC016 1-hr Precip Total: Trace

Support USWX by starting your Amazon purchase here.